CheckWX is a tool to help pilots better visualize weather data.  It is not intended as a substitute for an official pre-flight weather briefing.

01:51:55 UTC

CYXC TAF
Cranbrook Airport
Cranbrook, Canada
TAF CYXC 190038Z 1901/1913 VRB03KT P6SM FEW240 RMK NXT FCST BY 190700Z

Mar-19@
01:00 UTC

Mar-19 @ 01:00 UTC

Mar-19@
13:00 UTC

Mar-19 @ 13:00 UTC

TAF CYXC 190038Z 1901/1913 VRB03KT P6SM FEW240 RMK NXT FCST BY 190700Z
Wind
  • Variable at 3 KTS
Cloud Levels
  • Few at 24,000' AGL